createdAt,value
2023-04-29T00:01:15.492Z,101151.59
2023-04-29T00:03:43.159Z,101148.53
2023-04-29T00:06:11.733Z,101167.59
2023-04-29T00:08:38.548Z,101157.50
2023-04-29T00:11:05.468Z,101169.75
2023-04-29T00:13:32.452Z,101166.22
2023-04-29T00:15:59.242Z,101167.72
2023-04-29T00:18:26.081Z,101169.06
2023-04-29T00:20:53.038Z,101157.31
2023-04-29T00:23:20.017Z,101167.13
2023-04-29T00:25:47.060Z,101173.78
2023-04-29T00:28:14.049Z,101165.34
2023-04-29T00:30:40.914Z,101172.81
2023-04-29T00:33:07.957Z,101172.41
2023-04-29T00:35:35.430Z,101169.75
2023-04-29T00:38:02.133Z,101169.88
2023-04-29T00:40:29.320Z,101187.63
2023-04-29T00:42:57.239Z,101173.19
2023-04-29T00:45:24.248Z,101182.78
2023-04-29T00:47:52.812Z,101174.88
2023-04-29T00:50:19.855Z,101189.41
2023-04-29T00:52:47.471Z,101183.84
2023-04-29T00:55:15.249Z,101180.03
2023-04-29T00:57:42.689Z,101187.09
2023-04-29T01:00:10.296Z,101188.00
2023-04-29T01:02:37.949Z,101185.75
2023-04-29T01:05:05.102Z,101198.09
2023-04-29T01:07:38.648Z,101194.00
2023-04-29T01:10:27.540Z,101195.00
2023-04-29T01:13:18.365Z,101194.47
2023-04-29T01:16:04.262Z,101201.44
2023-04-29T01:18:37.732Z,101199.53
2023-04-29T01:21:04.758Z,101202.75
2023-04-29T01:23:31.900Z,101216.16
2023-04-29T01:25:59.277Z,101210.00
2023-04-29T01:28:48.842Z,101219.38
2023-04-29T01:31:21.511Z,101211.72
2023-04-29T01:34:10.906Z,101219.44
2023-04-29T01:36:47.825Z,101225.91
2023-04-29T01:39:18.397Z,101224.59
2023-04-29T01:42:16.866Z,101225.34
2023-04-29T01:44:44.019Z,101229.03
2023-04-29T01:47:14.242Z,101233.81
2023-04-29T01:49:46.976Z,101235.47
2023-04-29T01:52:13.695Z,101233.25
2023-04-29T01:54:43.558Z,101221.91
2023-04-29T01:57:10.812Z,101226.75
2023-04-29T01:59:49.282Z,101232.13
2023-04-29T02:02:39.121Z,101234.50
2023-04-29T02:05:16.572Z,101234.50
2023-04-29T02:07:52.688Z,101236.94
2023-04-29T02:10:19.787Z,101226.66
2023-04-29T02:12:48.815Z,101232.94
2023-04-29T02:15:17.758Z,101230.94
2023-04-29T02:17:44.659Z,101239.81
2023-04-29T02:20:11.985Z,101252.69
2023-04-29T02:22:39.491Z,101240.63
2023-04-29T02:25:07.315Z,101244.44
2023-04-29T02:27:34.165Z,101249.59
2023-04-29T02:30:00.910Z,101250.97
2023-04-29T02:32:28.512Z,101249.22
2023-04-29T02:34:55.285Z,101248.88
2023-04-29T02:37:21.992Z,101254.78
2023-04-29T02:39:49.023Z,101261.66
2023-04-29T02:42:15.698Z,101258.63
2023-04-29T02:44:42.691Z,101256.47
2023-04-29T02:47:09.594Z,101266.16
2023-04-29T02:49:36.311Z,101266.63
2023-04-29T02:52:03.074Z,101268.88
2023-04-29T02:54:31.876Z,101268.78
2023-04-29T02:56:58.933Z,101271.75
2023-04-29T02:59:25.754Z,101277.69
2023-04-29T03:01:54.225Z,101274.34
2023-04-29T03:04:21.032Z,101279.94
2023-04-29T03:06:48.728Z,101270.53
2023-04-29T03:09:15.702Z,101272.25
2023-04-29T03:11:45.283Z,101270.91
2023-04-29T03:14:12.589Z,101274.56
2023-04-29T03:16:40.234Z,101275.66
2023-04-29T03:19:07.355Z,101277.91
2023-04-29T03:21:34.325Z,101281.25
2023-04-29T03:24:01.244Z,101283.97
2023-04-29T03:26:33.297Z,101287.34
2023-04-29T03:29:00.167Z,101286.88
2023-04-29T03:31:27.561Z,101290.06
2023-04-29T03:33:54.497Z,101282.22
2023-04-29T03:36:22.183Z,101289.00
2023-04-29T03:39:01.659Z,101290.06
2023-04-29T03:41:29.399Z,101289.63
2023-04-29T03:44:00.707Z,101295.06
2023-04-29T03:46:29.067Z,101294.25
2023-04-29T03:48:58.737Z,101291.19
2023-04-29T03:51:25.933Z,101301.00
2023-04-29T03:53:59.081Z,101298.50
2023-04-29T03:56:26.342Z,101297.88
2023-04-29T03:58:53.515Z,101306.97
2023-04-29T04:01:22.354Z,101299.03
2023-04-29T04:03:49.659Z,101310.56
2023-04-29T04:06:16.672Z,101307.69
2023-04-29T04:08:43.833Z,101312.44
2023-04-29T04:11:15.387Z,101309.09
2023-04-29T04:13:45.943Z,101312.81
2023-04-29T04:16:13.199Z,101318.25
2023-04-29T04:18:40.236Z,101332.03
2023-04-29T04:21:11.614Z,101330.25
2023-04-29T04:23:41.257Z,101337.81
2023-04-29T04:26:10.340Z,101337.91
2023-04-29T04:28:52.635Z,101341.13
2023-04-29T04:31:27.811Z,101347.81
2023-04-29T04:33:54.605Z,101353.41
2023-04-29T04:36:21.616Z,101350.06
2023-04-29T04:38:48.537Z,101367.34
2023-04-29T04:41:15.433Z,101362.19
2023-04-29T04:43:44.528Z,101376.78
2023-04-29T04:46:20.834Z,101374.13
2023-04-29T04:49:07.819Z,101368.47
2023-04-29T04:51:40.553Z,101382.13
2023-04-29T04:54:07.508Z,101382.09
2023-04-29T04:56:37.171Z,101385.28
2023-04-29T04:59:05.373Z,101386.28
2023-04-29T05:01:34.273Z,101387.69
2023-04-29T05:04:02.743Z,101393.44
2023-04-29T05:06:30.963Z,101394.09
2023-04-29T05:08:57.893Z,101400.06
2023-04-29T05:11:25.058Z,101392.19
2023-04-29T05:14:07.685Z,101395.91
2023-04-29T05:16:34.508Z,101403.78
2023-04-29T05:19:01.478Z,101405.34
2023-04-29T05:21:32.295Z,101406.16
2023-04-29T05:24:00.023Z,101411.09
2023-04-29T05:26:26.717Z,101414.16
2023-04-29T05:28:57.078Z,101418.31
2023-04-29T05:31:26.428Z,101413.50
2023-04-29T05:33:53.457Z,101415.59
2023-04-29T05:36:20.711Z,101425.53
2023-04-29T05:38:47.493Z,101424.09
2023-04-29T05:41:14.797Z,101420.75
2023-04-29T05:43:59.415Z,101424.56
2023-04-29T05:46:26.721Z,101424.91
2023-04-29T05:48:54.124Z,101423.78
2023-04-29T05:51:21.475Z,101434.16
2023-04-29T05:53:49.256Z,101432.13
2023-04-29T05:56:16.615Z,101433.09
2023-04-29T05:58:43.549Z,101438.31
2023-04-29T06:01:10.287Z,101440.75
2023-04-29T06:03:37.525Z,101450.34
2023-04-29T06:06:34.481Z,101451.13
2023-04-29T06:09:27.466Z,101459.34
2023-04-29T06:11:58.055Z,101453.22
2023-04-29T06:14:27.206Z,101450.44
2023-04-29T06:16:54.419Z,101461.09
2023-04-29T06:19:25.195Z,101467.34
2023-04-29T06:27:58.606Z,101463.03
2023-04-29T06:30:28.480Z,101484.63
2023-04-29T06:32:55.898Z,101482.06
2023-04-29T06:35:25.418Z,101494.91
2023-04-29T06:38:01.640Z,101505.13
2023-04-29T06:40:38.379Z,101507.38
2023-04-29T06:43:24.340Z,101504.19
2023-04-29T06:46:10.699Z,101512.41
2023-04-29T06:48:44.413Z,101511.00
2023-04-29T06:51:11.245Z,101509.81
2023-04-29T06:53:39.520Z,101511.53
2023-04-29T06:56:06.993Z,101516.53
2023-04-29T06:58:34.060Z,101521.34
2023-04-29T07:01:01.040Z,101528.13
2023-04-29T07:03:28.050Z,101526.63
2023-04-29T07:05:54.870Z,101532.19
2023-04-29T07:08:21.705Z,101530.63
2023-04-29T07:10:56.670Z,101530.94
2023-04-29T07:13:24.493Z,101541.53
2023-04-29T07:15:51.754Z,101545.13
2023-04-29T07:18:18.633Z,101550.59
2023-04-29T07:20:46.081Z,101552.97
2023-04-29T07:23:13.187Z,101561.38
2023-04-29T07:25:41.197Z,101558.59
2023-04-29T07:28:11.467Z,101562.81
2023-04-29T07:30:40.920Z,101552.75
2023-04-29T07:33:08.268Z,101567.47
2023-04-29T07:35:35.077Z,101562.19
2023-04-29T07:38:02.245Z,101571.97
2023-04-29T07:40:31.238Z,101576.31
2023-04-29T07:42:59.036Z,101564.63
2023-04-29T07:45:26.712Z,101571.03
2023-04-29T07:47:53.881Z,101566.25
2023-04-29T07:50:21.048Z,101568.38
2023-04-29T07:52:48.063Z,101554.69
2023-04-29T07:55:17.171Z,101565.59
2023-04-29T07:57:44.097Z,101547.31
2023-04-29T08:00:12.378Z,101574.28
2023-04-29T08:02:43.124Z,101567.09
2023-04-29T08:05:13.552Z,101568.69
2023-04-29T08:07:40.659Z,101568.69
2023-04-29T08:10:08.013Z,101567.38
2023-04-29T08:12:39.081Z,101560.66
2023-04-29T08:15:09.745Z,101575.88
2023-04-29T08:17:46.724Z,101572.06
2023-04-29T08:20:13.877Z,101584.41
2023-04-29T08:22:40.952Z,101587.13
2023-04-29T08:25:08.731Z,101590.50
2023-04-29T08:27:36.135Z,101593.53
2023-04-29T08:30:03.169Z,101583.75
2023-04-29T08:32:30.694Z,101593.00
2023-04-29T08:34:57.899Z,101585.63
2023-04-29T08:37:24.837Z,101595.41
2023-04-29T08:39:51.491Z,101610.22
2023-04-29T08:42:21.710Z,101606.47
2023-04-29T08:44:49.689Z,101607.25
2023-04-29T08:47:16.847Z,101610.47
2023-04-29T08:49:43.726Z,101611.66
2023-04-29T08:52:10.812Z,101609.41
2023-04-29T08:54:37.658Z,101608.59
2023-04-29T08:57:05.678Z,101615.34
2023-04-29T08:59:32.681Z,101612.09
2023-04-29T09:02:00.430Z,101618.22
2023-04-29T09:04:30.906Z,101621.59
2023-04-29T09:06:58.793Z,101618.84
2023-04-29T09:09:26.550Z,101628.81
2023-04-29T09:11:53.579Z,101621.72
2023-04-29T09:14:20.841Z,101619.19
2023-04-29T09:16:47.905Z,101617.25
2023-04-29T09:19:34.529Z,101627.31
2023-04-29T09:22:02.616Z,101618.50
2023-04-29T09:24:31.619Z,101628.16
2023-04-29T09:26:59.440Z,101619.28
2023-04-29T09:29:26.535Z,101640.78
2023-04-29T09:31:53.889Z,101635.81
2023-04-29T09:34:38.403Z,101642.06
2023-04-29T09:37:23.364Z,101634.28
2023-04-29T09:39:50.656Z,101642.06
2023-04-29T09:42:17.828Z,101641.88
2023-04-29T09:44:45.801Z,101642.22
2023-04-29T09:47:13.524Z,101648.16
2023-04-29T09:49:42.764Z,101652.59
2023-04-29T09:52:15.214Z,101656.13
2023-04-29T09:54:43.698Z,101639.97
2023-04-29T09:57:14.629Z,101647.03
2023-04-29T09:59:42.118Z,101640.53
2023-04-29T10:02:20.910Z,101646.78
2023-04-29T10:04:54.809Z,101647.94
2023-04-29T10:07:22.443Z,101652.84
2023-04-29T10:09:49.334Z,101657.69
2023-04-29T10:12:18.092Z,101651.63
2023-04-29T10:14:51.612Z,101654.91
2023-04-29T10:17:25.224Z,101666.06
2023-04-29T10:20:07.648Z,101667.78
2023-04-29T10:22:44.193Z,101657.31
2023-04-29T10:25:12.366Z,101656.38
2023-04-29T10:27:39.619Z,101659.44
2023-04-29T10:30:07.895Z,101655.66
2023-04-29T10:32:47.177Z,101657.34
2023-04-29T10:35:23.614Z,101662.41
2023-04-29T10:37:51.071Z,101655.59
2023-04-29T10:40:23.211Z,101650.88
2023-04-29T10:42:52.414Z,101652.91
2023-04-29T10:45:22.918Z,101660.72
2023-04-29T10:48:10.969Z,101658.97
2023-04-29T10:50:47.048Z,101660.22
2023-04-29T10:53:20.356Z,101668.81
2023-04-29T10:55:48.688Z,101661.22
2023-04-29T10:58:37.346Z,101665.31
2023-04-29T11:01:04.628Z,101665.72
2023-04-29T11:04:05.110Z,101660.31
2023-04-29T11:06:38.354Z,101671.16
2023-04-29T11:09:16.272Z,101677.28
2023-04-29T11:17:37.883Z,101671.88
2023-04-29T11:20:14.221Z,101681.19
2023-04-29T11:22:41.305Z,101680.84
2023-04-29T11:25:11.730Z,101670.59
2023-04-29T11:27:40.324Z,101678.38
2023-04-29T11:30:07.774Z,101677.59
2023-04-29T11:32:43.006Z,101673.56
2023-04-29T11:35:19.677Z,101674.56
2023-04-29T11:37:47.610Z,101680.06
2023-04-29T11:40:14.964Z,101674.28
2023-04-29T11:42:49.384Z,101663.03
2023-04-29T11:45:19.815Z,101683.38
2023-04-29T11:47:48.081Z,101675.75
2023-04-29T11:50:17.891Z,101669.50
2023-04-29T11:52:46.753Z,101678.78
2023-04-29T11:55:14.787Z,101668.31
2023-04-29T11:57:41.865Z,101669.31
2023-04-29T12:00:13.334Z,101671.97
2023-04-29T12:02:45.184Z,101671.16
2023-04-29T12:05:17.533Z,101658.53
2023-04-29T12:07:44.796Z,101659.81
2023-04-29T12:10:12.247Z,101671.38
2023-04-29T12:12:46.825Z,101660.16
2023-04-29T12:15:19.961Z,101653.91
2023-04-29T12:17:47.687Z,101656.00
2023-04-29T12:20:14.713Z,101650.88
2023-04-29T12:22:43.824Z,101656.38
2023-04-29T12:25:11.154Z,101665.22
2023-04-29T12:27:41.567Z,101660.97
2023-04-29T12:30:09.865Z,101663.88
2023-04-29T12:32:37.336Z,101648.06
2023-04-29T12:35:04.347Z,101662.44
2023-04-29T12:37:33.465Z,101669.28
2023-04-29T12:40:00.606Z,101672.84
2023-04-29T12:42:33.722Z,101664.50
2023-04-29T12:45:01.167Z,101662.16
2023-04-29T12:47:33.899Z,101667.41
2023-04-29T12:50:01.161Z,101670.44
2023-04-29T12:52:27.929Z,101665.09
2023-04-29T12:54:54.845Z,101664.72
2023-04-29T12:57:23.058Z,101671.31
2023-04-29T12:59:49.884Z,101661.28
2023-04-29T13:02:16.747Z,101660.75
2023-04-29T13:04:43.938Z,101665.03
2023-04-29T13:07:11.026Z,101668.59
2023-04-29T13:09:38.354Z,101665.84
2023-04-29T13:12:05.719Z,101667.22
2023-04-29T13:14:32.500Z,101669.66
2023-04-29T13:16:59.339Z,101669.34
2023-04-29T13:19:41.162Z,101677.47
2023-04-29T13:22:13.691Z,101672.44
2023-04-29T13:24:40.651Z,101673.31
2023-04-29T13:27:07.495Z,101676.59
2023-04-29T13:29:34.266Z,101677.28
2023-04-29T13:32:01.270Z,101673.97
2023-04-29T13:34:28.475Z,101666.88
2023-04-29T13:36:55.236Z,101682.03
2023-04-29T13:39:23.602Z,101681.91
2023-04-29T13:41:51.029Z,101685.16
2023-04-29T13:44:29.267Z,101682.78
2023-04-29T13:47:01.707Z,101684.16
2023-04-29T13:50:03.320Z,101682.88
2023-04-29T13:53:01.455Z,101689.59
2023-04-29T14:00:19.318Z,101685.19
2023-04-29T14:05:23.502Z,101694.84
2023-04-29T14:07:50.677Z,101686.06
2023-04-29T14:10:17.590Z,101693.50
2023-04-29T14:12:44.824Z,101694.09
2023-04-29T14:15:12.366Z,101696.31
2023-04-29T14:17:39.360Z,101694.88
2023-04-29T14:20:07.002Z,101695.69
2023-04-29T14:22:33.824Z,101690.03
2023-04-29T14:25:00.694Z,101694.72
2023-04-29T14:27:27.478Z,101682.75
2023-04-29T14:29:54.478Z,101686.88
2023-04-29T14:32:21.279Z,101690.31
2023-04-29T14:34:48.442Z,101687.25
2023-04-29T14:37:15.611Z,101692.03
2023-04-29T14:39:42.445Z,101695.81
2023-04-29T14:42:09.479Z,101690.22
2023-04-29T14:44:36.464Z,101693.16
2023-04-29T14:47:04.354Z,101691.56
2023-04-29T14:49:31.779Z,101694.06
2023-04-29T14:51:59.042Z,101703.22
2023-04-29T14:54:27.209Z,101695.69
2023-04-29T14:56:54.199Z,101698.41
2023-04-29T14:59:21.170Z,101701.97
2023-04-29T15:01:48.281Z,101701.66
2023-04-29T15:04:16.134Z,101696.84
2023-04-29T15:06:43.265Z,101699.81
2023-04-29T15:09:10.675Z,101696.84
2023-04-29T15:11:37.607Z,101692.97
2023-04-29T15:14:04.429Z,101695.22
2023-04-29T15:16:31.686Z,101697.31
2023-04-29T15:18:59.102Z,101704.03
2023-04-29T15:21:27.159Z,101701.19
2023-04-29T15:23:54.482Z,101698.03
2023-04-29T15:26:21.945Z,101698.22
2023-04-29T15:28:49.410Z,101690.59
2023-04-29T15:31:16.443Z,101690.94
2023-04-29T15:33:43.736Z,101687.38
2023-04-29T15:36:10.767Z,101688.50
2023-04-29T15:38:37.694Z,101688.28
2023-04-29T15:41:04.517Z,101688.50
2023-04-29T15:43:32.914Z,101687.94
2023-04-29T15:46:00.267Z,101684.84
2023-04-29T15:48:27.309Z,101691.38
2023-04-29T15:50:54.163Z,101685.44
2023-04-29T15:53:21.182Z,101693.53
2023-04-29T15:55:48.090Z,101688.28
2023-04-29T15:58:14.893Z,101690.69
2023-04-29T16:00:42.171Z,101689.09
2023-04-29T16:03:08.992Z,101706.34
2023-04-29T16:05:38.795Z,101702.34
2023-04-29T16:08:06.702Z,101698.53
2023-04-29T16:10:33.992Z,101702.88
2023-04-29T16:13:09.423Z,101691.59
2023-04-29T16:16:02.457Z,101700.38
2023-04-29T16:18:29.403Z,101700.16
2023-04-29T16:20:56.766Z,101706.91
2023-04-29T16:23:24.047Z,101700.84
2023-04-29T16:25:50.877Z,101704.59
2023-04-29T16:28:17.901Z,101704.50
2023-04-29T16:30:44.901Z,101690.09
2023-04-29T16:33:11.673Z,101688.84
2023-04-29T16:35:38.569Z,101695.94
2023-04-29T16:38:07.621Z,101694.88
2023-04-29T16:40:34.781Z,101703.66
2023-04-29T16:43:01.567Z,101697.59
2023-04-29T16:45:29.343Z,101689.03
2023-04-29T16:47:58.313Z,101692.81
2023-04-29T16:50:27.935Z,101688.69
2023-04-29T16:52:54.764Z,101696.41
2023-04-29T16:55:30.889Z,101685.50
2023-04-29T16:57:58.612Z,101686.16
2023-04-29T17:00:25.612Z,101698.94
2023-04-29T17:02:53.021Z,101703.78
2023-04-29T17:05:20.204Z,101702.91
2023-04-29T17:07:47.355Z,101693.81
2023-04-29T17:10:14.054Z,101695.31
2023-04-29T17:12:40.884Z,101697.03
2023-04-29T17:15:08.346Z,101692.94
2023-04-29T17:17:35.223Z,101704.22
2023-04-29T17:20:02.312Z,101697.38
2023-04-29T17:22:29.136Z,101700.78
2023-04-29T17:24:58.626Z,101700.44
2023-04-29T17:27:25.652Z,101697.75
2023-04-29T17:29:52.815Z,101697.47
2023-04-29T17:32:28.154Z,101696.38
2023-04-29T17:34:59.508Z,101689.16
2023-04-29T17:37:26.639Z,101698.19
2023-04-29T17:39:53.712Z,101696.69
2023-04-29T17:42:23.569Z,101689.97
2023-04-29T17:44:50.416Z,101694.88
2023-04-29T17:47:17.589Z,101680.25
2023-04-29T17:49:44.589Z,101688.72
2023-04-29T17:52:11.918Z,101693.72
2023-04-29T17:54:39.869Z,101694.28
2023-04-29T17:57:06.774Z,101687.91
2023-04-29T17:59:33.582Z,101688.72
2023-04-29T18:02:00.365Z,101699.53
2023-04-29T18:04:27.253Z,101689.63
2023-04-29T18:06:54.046Z,101706.41
2023-04-29T18:09:21.577Z,101696.38
2023-04-29T18:11:49.225Z,101693.63
2023-04-29T18:14:16.687Z,101695.69
2023-04-29T18:16:43.662Z,101699.56
2023-04-29T18:19:10.562Z,101694.75
2023-04-29T18:21:37.691Z,101697.84
2023-04-29T18:24:05.244Z,101701.16
2023-04-29T18:26:32.080Z,101698.88
2023-04-29T18:28:59.090Z,101701.63
2023-04-29T18:31:27.449Z,101710.16
2023-04-29T18:33:54.344Z,101706.97
2023-04-29T18:36:21.884Z,101716.09
2023-04-29T18:38:48.902Z,101725.69
2023-04-29T18:41:15.684Z,101718.59
2023-04-29T18:43:42.636Z,101718.13
2023-04-29T18:46:09.707Z,101710.13
2023-04-29T18:48:38.341Z,101724.50
2023-04-29T18:51:06.365Z,101722.91
2023-04-29T18:53:37.831Z,101726.34
2023-04-29T18:56:05.112Z,101718.31
2023-04-29T18:58:31.960Z,101719.13
2023-04-29T19:01:00.115Z,101725.63
2023-04-29T19:03:27.280Z,101713.66
2023-04-29T19:05:54.273Z,101719.81
2023-04-29T19:08:21.258Z,101722.69
2023-04-29T19:10:48.151Z,101732.59
2023-04-29T19:13:14.884Z,101735.09
2023-04-29T19:15:41.746Z,101742.25
2023-04-29T19:18:08.480Z,101738.66
2023-04-29T19:20:35.328Z,101744.78
2023-04-29T19:23:02.249Z,101748.25
2023-04-29T19:25:29.031Z,101750.06
2023-04-29T19:27:56.192Z,101747.59
2023-04-29T19:30:22.994Z,101759.03
2023-04-29T19:32:49.813Z,101762.88
2023-04-29T19:35:16.782Z,101765.63
2023-04-29T19:37:44.262Z,101761.81
2023-04-29T19:40:11.417Z,101757.34
2023-04-29T19:42:39.333Z,101762.47
2023-04-29T19:45:07.767Z,101763.53
2023-04-29T19:47:35.027Z,101769.81
2023-04-29T19:50:02.384Z,101767.06
2023-04-29T19:52:29.872Z,101766.41
2023-04-29T19:54:56.968Z,101764.78
2023-04-29T19:57:23.980Z,101766.97
2023-04-29T19:59:50.920Z,101772.53
2023-04-29T20:02:17.728Z,101772.97
2023-04-29T20:04:44.556Z,101768.66
2023-04-29T20:07:11.496Z,101783.78
2023-04-29T20:09:38.354Z,101782.81
2023-04-29T20:12:05.337Z,101787.47
2023-04-29T20:14:32.965Z,101790.69
2023-04-29T20:17:00.655Z,101786.50
2023-04-29T20:19:27.751Z,101789.72
2023-04-29T20:21:54.627Z,101789.56
2023-04-29T20:24:21.664Z,101788.91
2023-04-29T20:26:48.535Z,101795.03
2023-04-29T20:29:15.275Z,101803.56
2023-04-29T20:31:42.211Z,101804.53
2023-04-29T20:34:08.941Z,101795.16
2023-04-29T20:36:35.670Z,101789.41
2023-04-29T20:39:02.555Z,101799.03
2023-04-29T20:41:29.424Z,101802.34
2023-04-29T20:43:56.606Z,101796.91
2023-04-29T20:46:27.307Z,101802.88
2023-04-29T20:48:54.154Z,101794.25
2023-04-29T20:51:21.081Z,101797.84
2023-04-29T20:53:48.481Z,101797.06
2023-04-29T20:56:16.211Z,101799.03
2023-04-29T20:58:42.984Z,101795.84
2023-04-29T21:01:19.855Z,101800.47
2023-04-29T21:03:46.755Z,101798.09
2023-04-29T21:06:13.831Z,101798.91
2023-04-29T21:08:40.855Z,101802.09
2023-04-29T21:11:10.184Z,101808.06
2023-04-29T21:13:37.626Z,101810.00
2023-04-29T21:16:04.629Z,101810.13
2023-04-29T21:18:31.420Z,101803.75
2023-04-29T21:20:58.058Z,101807.44
2023-04-29T21:23:24.936Z,101803.59
2023-04-29T21:25:51.758Z,101809.69
2023-04-29T21:28:18.764Z,101809.25
2023-04-29T21:30:45.508Z,101810.78
2023-04-29T21:33:12.328Z,101806.16
2023-04-29T21:35:42.171Z,101814.84
2023-04-29T21:38:11.908Z,101818.53
2023-04-29T21:40:41.605Z,101819.63
2023-04-29T21:43:10.027Z,101810.78
2023-04-29T21:45:36.780Z,101822.06
2023-04-29T21:48:17.626Z,101822.84
2023-04-29T21:50:47.705Z,101828.50
2023-04-29T21:53:16.366Z,101824.78
2023-04-29T21:55:43.442Z,101831.53
2023-04-29T21:58:11.079Z,101823.00
2023-04-29T22:00:40.636Z,101828.97
2023-04-29T22:03:11.350Z,101835.06
2023-04-29T22:05:39.765Z,101827.19
2023-04-29T22:08:07.632Z,101835.41
2023-04-29T22:10:34.945Z,101840.84
2023-04-29T22:13:01.938Z,101839.41
2023-04-29T22:15:29.663Z,101838.94
2023-04-29T22:17:57.872Z,101846.78
2023-04-29T22:20:25.169Z,101841.47
2023-04-29T22:22:52.292Z,101838.28
2023-04-29T22:25:22.138Z,101841.47
2023-04-29T22:27:51.841Z,101855.97
2023-04-29T22:30:22.021Z,101854.28
2023-04-29T22:32:49.047Z,101845.47
2023-04-29T22:35:16.249Z,101849.00
2023-04-29T22:37:43.022Z,101861.50
2023-04-29T22:40:10.569Z,101859.91
2023-04-29T22:42:37.528Z,101859.56
2023-04-29T22:45:04.606Z,101860.38
2023-04-29T22:47:32.154Z,101851.50
2023-04-29T22:49:58.954Z,101853.81
2023-04-29T22:52:27.494Z,101852.31
2023-04-29T22:54:54.569Z,101860.88
2023-04-29T22:57:21.405Z,101859.75
2023-04-29T22:59:49.308Z,101865.63
2023-04-29T23:02:16.313Z,101854.19
2023-04-29T23:04:43.005Z,101865.38
2023-04-29T23:07:09.937Z,101868.25
2023-04-29T23:09:37.080Z,101876.28
2023-04-29T23:12:04.077Z,101879.03
2023-04-29T23:14:31.236Z,101872.59
2023-04-29T23:16:58.113Z,101871.97
2023-04-29T23:19:24.875Z,101865.06
2023-04-29T23:21:51.586Z,101872.63
2023-04-29T23:24:18.394Z,101869.44
2023-04-29T23:26:45.150Z,101872.97
2023-04-29T23:29:12.001Z,101879.25
2023-04-29T23:31:38.870Z,101880.66
2023-04-29T23:34:05.623Z,101875.03
2023-04-29T23:36:32.599Z,101878.41
2023-04-29T23:38:59.506Z,101876.00
2023-04-29T23:41:26.322Z,101878.38
2023-04-29T23:43:53.058Z,101876.13
2023-04-29T23:46:20.054Z,101882.38
2023-04-29T23:48:46.749Z,101884.63
2023-04-29T23:51:13.873Z,101877.38
2023-04-29T23:53:40.736Z,101881.69
2023-04-29T23:56:07.679Z,101882.09
2023-04-29T23:58:34.504Z,101889.09
